sensor_id;sensor_type;location;lat;lon;timestamp;P1;durP1;ratioP1;P2;durP2;ratioP2
55009;SDS011;40903;51.638;7.528;2023-12-20T00:01:00;12.10;;;7.10;;
55009;SDS011;40903;51.638;7.528;2023-12-20T00:03:26;10.73;;;6.73;;
55009;SDS011;40903;51.638;7.528;2023-12-20T00:05:51;9.13;;;6.00;;
55009;SDS011;40903;51.638;7.528;2023-12-20T00:08:17;14.23;;;6.77;;
55009;SDS011;40903;51.638;7.528;2023-12-20T00:10:43;12.47;;;7.00;;
55009;SDS011;40903;51.638;7.528;2023-12-20T00:13:09;12.97;;;7.50;;
55009;SDS011;40903;51.638;7.528;2023-12-20T00:15:35;10.80;;;6.47;;
55009;SDS011;40903;51.638;7.528;2023-12-20T00:18:03;12.33;;;6.70;;
55009;SDS011;40903;51.638;7.528;2023-12-20T00:20:29;11.57;;;7.53;;
55009;SDS011;40903;51.638;7.528;2023-12-20T00:22:58;12.93;;;6.80;;
55009;SDS011;40903;51.638;7.528;2023-12-20T00:25:24;10.27;;;6.00;;
55009;SDS011;40903;51.638;7.528;2023-12-20T00:27:50;11.17;;;5.93;;
55009;SDS011;40903;51.638;7.528;2023-12-20T00:30:16;10.07;;;5.87;;
55009;SDS011;40903;51.638;7.528;2023-12-20T00:32:42;10.57;;;6.10;;
55009;SDS011;40903;51.638;7.528;2023-12-20T00:35:13;11.57;;;6.17;;
55009;SDS011;40903;51.638;7.528;2023-12-20T00:37:39;12.50;;;6.47;;
55009;SDS011;40903;51.638;7.528;2023-12-20T00:40:05;12.27;;;6.50;;
55009;SDS011;40903;51.638;7.528;2023-12-20T00:42:31;12.37;;;6.83;;
55009;SDS011;40903;51.638;7.528;2023-12-20T00:44:58;11.63;;;7.00;;
55009;SDS011;40903;51.638;7.528;2023-12-20T00:47:24;18.40;;;8.40;;
55009;SDS011;40903;51.638;7.528;2023-12-20T00:49:49;13.90;;;7.70;;
55009;SDS011;40903;51.638;7.528;2023-12-20T00:52:15;14.10;;;7.67;;
55009;SDS011;40903;51.638;7.528;2023-12-20T00:54:42;14.93;;;7.07;;
55009;SDS011;40903;51.638;7.528;2023-12-20T00:57:08;13.50;;;7.83;;
55009;SDS011;40903;51.638;7.528;2023-12-20T00:59:34;16.70;;;8.60;;
55009;SDS011;40903;51.638;7.528;2023-12-20T01:02:00;15.73;;;7.93;;
55009;SDS011;40903;51.638;7.528;2023-12-20T01:04:25;14.40;;;7.13;;
55009;SDS011;40903;51.638;7.528;2023-12-20T01:06:51;11.63;;;6.70;;
55009;SDS011;40903;51.638;7.528;2023-12-20T01:09:18;14.47;;;6.80;;
55009;SDS011;40903;51.638;7.528;2023-12-20T01:11:44;12.27;;;6.97;;
55009;SDS011;40903;51.638;7.528;2023-12-20T01:14:14;12.17;;;6.27;;
55009;SDS011;40903;51.638;7.528;2023-12-20T01:16:39;13.93;;;6.83;;
55009;SDS011;40903;51.638;7.528;2023-12-20T01:19:05;10.07;;;5.93;;
55009;SDS011;40903;51.638;7.528;2023-12-20T01:21:32;14.33;;;4.87;;
55009;SDS011;40903;51.638;7.528;2023-12-20T01:23:58;10.80;;;4.77;;
55009;SDS011;40903;51.638;7.528;2023-12-20T01:26:24;9.40;;;5.40;;
55009;SDS011;40903;51.638;7.528;2023-12-20T01:28:49;9.57;;;5.03;;
55009;SDS011;40903;51.638;7.528;2023-12-20T01:31:15;8.70;;;5.07;;
55009;SDS011;40903;51.638;7.528;2023-12-20T01:33:40;7.07;;;3.70;;
55009;SDS011;40903;51.638;7.528;2023-12-20T01:36:06;15.30;;;4.03;;
55009;SDS011;40903;51.638;7.528;2023-12-20T01:38:31;6.87;;;3.93;;
55009;SDS011;40903;51.638;7.528;2023-12-20T01:40:57;9.50;;;3.67;;
55009;SDS011;40903;51.638;7.528;2023-12-20T01:43:22;8.90;;;2.80;;
55009;SDS011;40903;51.638;7.528;2023-12-20T01:45:48;7.20;;;3.30;;
55009;SDS011;40903;51.638;7.528;2023-12-20T01:48:14;6.73;;;3.27;;
55009;SDS011;40903;51.638;7.528;2023-12-20T01:50:41;7.50;;;3.07;;
55009;SDS011;40903;51.638;7.528;2023-12-20T01:53:09;7.43;;;3.77;;
55009;SDS011;40903;51.638;7.528;2023-12-20T01:55:38;11.60;;;3.70;;
55009;SDS011;40903;51.638;7.528;2023-12-20T01:58:05;9.47;;;3.50;;
55009;SDS011;40903;51.638;7.528;2023-12-20T02:00:31;12.17;;;3.73;;
55009;SDS011;40903;51.638;7.528;2023-12-20T02:02:57;5.23;;;3.13;;
55009;SDS011;40903;51.638;7.528;2023-12-20T02:05:26;7.63;;;3.47;;
55009;SDS011;40903;51.638;7.528;2023-12-20T02:07:53;6.20;;;3.60;;
55009;SDS011;40903;51.638;7.528;2023-12-20T02:10:18;8.37;;;3.30;;
55009;SDS011;40903;51.638;7.528;2023-12-20T02:12:44;9.00;;;3.73;;
55009;SDS011;40903;51.638;7.528;2023-12-20T02:15:10;10.57;;;3.87;;
55009;SDS011;40903;51.638;7.528;2023-12-20T02:17:36;5.23;;;2.87;;
55009;SDS011;40903;51.638;7.528;2023-12-20T02:20:03;13.33;;;4.03;;
55009;SDS011;40903;51.638;7.528;2023-12-20T02:22:30;10.20;;;3.53;;
55009;SDS011;40903;51.638;7.528;2023-12-20T02:24:56;7.80;;;3.47;;
55009;SDS011;40903;51.638;7.528;2023-12-20T02:27:21;9.00;;;3.63;;
55009;SDS011;40903;51.638;7.528;2023-12-20T02:29:48;8.33;;;3.67;;
55009;SDS011;40903;51.638;7.528;2023-12-20T02:32:15;7.60;;;3.50;;
55009;SDS011;40903;51.638;7.528;2023-12-20T02:34:45;8.20;;;3.53;;
55009;SDS011;40903;51.638;7.528;2023-12-20T02:37:12;10.33;;;3.70;;
55009;SDS011;40903;51.638;7.528;2023-12-20T02:39:37;8.50;;;4.40;;
55009;SDS011;40903;51.638;7.528;2023-12-20T02:42:03;11.57;;;3.87;;
55009;SDS011;40903;51.638;7.528;2023-12-20T02:44:29;8.63;;;4.03;;
55009;SDS011;40903;51.638;7.528;2023-12-20T02:46:54;11.63;;;3.63;;
55009;SDS011;40903;51.638;7.528;2023-12-20T02:49:20;7.70;;;3.73;;
55009;SDS011;40903;51.638;7.528;2023-12-20T02:51:45;10.50;;;4.03;;
55009;SDS011;40903;51.638;7.528;2023-12-20T02:54:11;6.93;;;3.30;;
55009;SDS011;40903;51.638;7.528;2023-12-20T02:56:37;13.13;;;3.97;;
55009;SDS011;40903;51.638;7.528;2023-12-20T02:59:02;8.80;;;3.67;;
55009;SDS011;40903;51.638;7.528;2023-12-20T03:01:31;4.83;;;3.50;;
55009;SDS011;40903;51.638;7.528;2023-12-20T03:03:56;10.80;;;3.53;;
55009;SDS011;40903;51.638;7.528;2023-12-20T03:06:22;11.97;;;3.20;;
55009;SDS011;40903;51.638;7.528;2023-12-20T03:08:48;9.27;;;3.43;;
55009;SDS011;40903;51.638;7.528;2023-12-20T03:11:14;8.03;;;3.63;;
55009;SDS011;40903;51.638;7.528;2023-12-20T03:13:39;6.83;;;3.53;;
55009;SDS011;40903;51.638;7.528;2023-12-20T03:16:11;10.37;;;5.53;;
55009;SDS011;40903;51.638;7.528;2023-12-20T03:18:37;13.47;;;4.10;;
55009;SDS011;40903;51.638;7.528;2023-12-20T03:21:06;10.10;;;3.50;;
55009;SDS011;40903;51.638;7.528;2023-12-20T03:23:34;9.57;;;3.47;;
55009;SDS011;40903;51.638;7.528;2023-12-20T03:26:00;11.33;;;3.63;;
55009;SDS011;40903;51.638;7.528;2023-12-20T03:28:26;9.80;;;3.97;;
55009;SDS011;40903;51.638;7.528;2023-12-20T03:30:52;7.80;;;3.27;;
55009;SDS011;40903;51.638;7.528;2023-12-20T03:33:18;9.30;;;3.50;;
55009;SDS011;40903;51.638;7.528;2023-12-20T03:35:43;11.70;;;4.00;;
55009;SDS011;40903;51.638;7.528;2023-12-20T03:38:09;9.90;;;3.70;;
55009;SDS011;40903;51.638;7.528;2023-12-20T03:40:35;9.40;;;3.93;;
55009;SDS011;40903;51.638;7.528;2023-12-20T03:43:00;10.70;;;3.57;;
55009;SDS011;40903;51.638;7.528;2023-12-20T03:45:26;9.90;;;3.97;;
55009;SDS011;40903;51.638;7.528;2023-12-20T03:47:51;9.63;;;4.30;;
55009;SDS011;40903;51.638;7.528;2023-12-20T03:50:24;11.60;;;4.03;;
55009;SDS011;40903;51.638;7.528;2023-12-20T03:52:50;11.00;;;3.40;;
55009;SDS011;40903;51.638;7.528;2023-12-20T03:55:16;8.17;;;3.87;;
55009;SDS011;40903;51.638;7.528;2023-12-20T03:57:41;9.10;;;4.67;;
55009;SDS011;40903;51.638;7.528;2023-12-20T04:00:07;11.97;;;4.60;;
55009;SDS011;40903;51.638;7.528;2023-12-20T04:02:36;9.57;;;4.83;;
55009;SDS011;40903;51.638;7.528;2023-12-20T04:05:06;12.33;;;4.37;;
55009;SDS011;40903;51.638;7.528;2023-12-20T04:07:32;17.27;;;6.13;;
55009;SDS011;40903;51.638;7.528;2023-12-20T04:09:58;13.37;;;5.67;;
55009;SDS011;40903;51.638;7.528;2023-12-20T04:12:23;17.50;;;5.37;;
55009;SDS011;40903;51.638;7.528;2023-12-20T04:14:51;16.17;;;6.13;;
55009;SDS011;40903;51.638;7.528;2023-12-20T04:17:17;21.07;;;6.63;;
55009;SDS011;40903;51.638;7.528;2023-12-20T04:19:42;17.60;;;5.63;;
55009;SDS011;40903;51.638;7.528;2023-12-20T04:22:08;20.30;;;6.80;;
55009;SDS011;40903;51.638;7.528;2023-12-20T04:24:34;13.97;;;6.17;;
55009;SDS011;40903;51.638;7.528;2023-12-20T04:26:59;20.10;;;6.33;;
55009;SDS011;40903;51.638;7.528;2023-12-20T04:29:27;20.87;;;5.97;;
55009;SDS011;40903;51.638;7.528;2023-12-20T04:31:53;20.27;;;6.07;;
55009;SDS011;40903;51.638;7.528;2023-12-20T04:34:19;19.67;;;4.73;;
55009;SDS011;40903;51.638;7.528;2023-12-20T04:36:44;17.80;;;5.13;;
55009;SDS011;40903;51.638;7.528;2023-12-20T04:39:11;19.00;;;5.80;;
55009;SDS011;40903;51.638;7.528;2023-12-20T04:41:38;19.50;;;6.33;;
55009;SDS011;40903;51.638;7.528;2023-12-20T04:44:04;13.83;;;4.97;;
55009;SDS011;40903;51.638;7.528;2023-12-20T04:46:32;10.67;;;5.67;;
55009;SDS011;40903;51.638;7.528;2023-12-20T04:48:58;13.50;;;5.27;;
55009;SDS011;40903;51.638;7.528;2023-12-20T04:51:23;13.57;;;5.40;;
55009;SDS011;40903;51.638;7.528;2023-12-20T04:53:50;15.77;;;6.13;;
55009;SDS011;40903;51.638;7.528;2023-12-20T04:56:15;20.83;;;7.00;;
55009;SDS011;40903;51.638;7.528;2023-12-20T04:58:42;19.83;;;6.30;;
55009;SDS011;40903;51.638;7.528;2023-12-20T05:01:08;18.50;;;7.30;;
55009;SDS011;40903;51.638;7.528;2023-12-20T05:03:34;19.93;;;6.80;;
55009;SDS011;40903;51.638;7.528;2023-12-20T05:06:00;17.97;;;6.00;;
55009;SDS011;40903;51.638;7.528;2023-12-20T05:08:25;23.73;;;6.87;;
55009;SDS011;40903;51.638;7.528;2023-12-20T05:10:52;11.43;;;5.97;;
55009;SDS011;40903;51.638;7.528;2023-12-20T05:13:21;13.77;;;6.67;;
55009;SDS011;40903;51.638;7.528;2023-12-20T05:15:47;16.13;;;5.83;;
55009;SDS011;40903;51.638;7.528;2023-12-20T05:18:13;14.77;;;6.03;;
55009;SDS011;40903;51.638;7.528;2023-12-20T05:20:39;12.97;;;5.50;;
55009;SDS011;40903;51.638;7.528;2023-12-20T05:23:05;16.60;;;6.23;;
55009;SDS011;40903;51.638;7.528;2023-12-20T05:25:30;11.70;;;6.37;;
55009;SDS011;40903;51.638;7.528;2023-12-20T05:27:56;20.90;;;7.03;;
55009;SDS011;40903;51.638;7.528;2023-12-20T05:30:22;14.67;;;6.40;;
55009;SDS011;40903;51.638;7.528;2023-12-20T05:32:47;15.07;;;6.33;;
55009;SDS011;40903;51.638;7.528;2023-12-20T05:35:13;20.57;;;7.00;;
55009;SDS011;40903;51.638;7.528;2023-12-20T05:37:40;16.13;;;6.47;;
55009;SDS011;40903;51.638;7.528;2023-12-20T05:40:06;13.90;;;5.97;;
55009;SDS011;40903;51.638;7.528;2023-12-20T05:42:32;13.93;;;5.40;;
55009;SDS011;40903;51.638;7.528;2023-12-20T05:44:57;13.40;;;6.03;;
55009;SDS011;40903;51.638;7.528;2023-12-20T05:47:23;12.00;;;5.70;;
55009;SDS011;40903;51.638;7.528;2023-12-20T05:49:48;12.77;;;7.00;;
55009;SDS011;40903;51.638;7.528;2023-12-20T05:52:15;15.30;;;6.93;;
55009;SDS011;40903;51.638;7.528;2023-12-20T05:54:40;23.10;;;7.53;;
55009;SDS011;40903;51.638;7.528;2023-12-20T05:57:06;15.13;;;6.10;;
55009;SDS011;40903;51.638;7.528;2023-12-20T05:59:31;19.23;;;7.03;;
55009;SDS011;40903;51.638;7.528;2023-12-20T06:01:57;15.67;;;7.77;;
55009;SDS011;40903;51.638;7.528;2023-12-20T06:04:22;15.57;;;7.53;;
55009;SDS011;40903;51.638;7.528;2023-12-20T06:06:48;15.23;;;7.73;;
55009;SDS011;40903;51.638;7.528;2023-12-20T06:09:13;19.03;;;8.23;;
55009;SDS011;40903;51.638;7.528;2023-12-20T06:11:40;17.03;;;7.43;;
55009;SDS011;40903;51.638;7.528;2023-12-20T06:14:06;16.17;;;6.87;;
55009;SDS011;40903;51.638;7.528;2023-12-20T06:16:31;25.50;;;7.67;;
55009;SDS011;40903;51.638;7.528;2023-12-20T06:18:57;22.30;;;7.37;;
55009;SDS011;40903;51.638;7.528;2023-12-20T06:21:22;22.10;;;7.30;;
55009;SDS011;40903;51.638;7.528;2023-12-20T06:23:48;13.33;;;7.07;;
55009;SDS011;40903;51.638;7.528;2023-12-20T06:26:13;21.13;;;8.10;;
55009;SDS011;40903;51.638;7.528;2023-12-20T06:28:39;17.53;;;6.77;;
55009;SDS011;40903;51.638;7.528;2023-12-20T06:31:04;18.20;;;5.97;;
55009;SDS011;40903;51.638;7.528;2023-12-20T06:33:30;13.60;;;6.17;;
55009;SDS011;40903;51.638;7.528;2023-12-20T06:35:58;12.83;;;6.13;;
55009;SDS011;40903;51.638;7.528;2023-12-20T06:38:24;20.57;;;6.33;;
55009;SDS011;40903;51.638;7.528;2023-12-20T06:40:49;14.40;;;6.57;;
55009;SDS011;40903;51.638;7.528;2023-12-20T06:43:15;15.93;;;6.77;;
55009;SDS011;40903;51.638;7.528;2023-12-20T06:45:40;16.60;;;7.23;;
55009;SDS011;40903;51.638;7.528;2023-12-20T06:48:06;19.10;;;7.00;;
55009;SDS011;40903;51.638;7.528;2023-12-20T06:50:32;17.47;;;7.20;;
55009;SDS011;40903;51.638;7.528;2023-12-20T06:52:57;19.77;;;7.17;;
55009;SDS011;40903;51.638;7.528;2023-12-20T06:55:23;22.13;;;8.03;;
55009;SDS011;40903;51.638;7.528;2023-12-20T06:57:48;17.97;;;7.30;;
55009;SDS011;40903;51.638;7.528;2023-12-20T07:00:14;19.03;;;8.37;;
55009;SDS011;40903;51.638;7.528;2023-12-20T07:02:40;20.80;;;6.77;;
55009;SDS011;40903;51.638;7.528;2023-12-20T07:05:05;14.60;;;7.30;;
55009;SDS011;40903;51.638;7.528;2023-12-20T07:07:31;19.40;;;6.40;;
55009;SDS011;40903;51.638;7.528;2023-12-20T07:09:57;26.80;;;8.10;;
55009;SDS011;40903;51.638;7.528;2023-12-20T07:12:22;13.50;;;6.30;;
55009;SDS011;40903;51.638;7.528;2023-12-20T07:14:48;12.27;;;6.43;;
55009;SDS011;40903;51.638;7.528;2023-12-20T07:17:13;18.63;;;7.13;;
55009;SDS011;40903;51.638;7.528;2023-12-20T07:19:40;21.23;;;6.63;;
55009;SDS011;40903;51.638;7.528;2023-12-20T07:22:06;13.50;;;6.13;;
55009;SDS011;40903;51.638;7.528;2023-12-20T07:24:32;17.47;;;6.50;;
55009;SDS011;40903;51.638;7.528;2023-12-20T07:26:59;18.83;;;6.90;;
55009;SDS011;40903;51.638;7.528;2023-12-20T07:29:25;14.47;;;6.30;;
55009;SDS011;40903;51.638;7.528;2023-12-20T07:31:52;19.97;;;6.93;;
55009;SDS011;40903;51.638;7.528;2023-12-20T07:34:19;21.17;;;7.00;;
55009;SDS011;40903;51.638;7.528;2023-12-20T07:36:47;21.53;;;7.10;;
55009;SDS011;40903;51.638;7.528;2023-12-20T07:39:13;20.47;;;8.87;;
55009;SDS011;40903;51.638;7.528;2023-12-20T07:41:39;14.63;;;6.20;;
55009;SDS011;40903;51.638;7.528;2023-12-20T07:44:05;16.73;;;6.27;;
55009;SDS011;40903;51.638;7.528;2023-12-20T07:46:32;18.63;;;6.87;;
55009;SDS011;40903;51.638;7.528;2023-12-20T07:49:01;26.03;;;6.57;;
55009;SDS011;40903;51.638;7.528;2023-12-20T07:51:27;14.90;;;5.90;;
55009;SDS011;40903;51.638;7.528;2023-12-20T07:53:55;21.50;;;7.23;;
55009;SDS011;40903;51.638;7.528;2023-12-20T07:56:21;13.60;;;6.07;;
55009;SDS011;40903;51.638;7.528;2023-12-20T07:58:46;10.23;;;5.97;;
55009;SDS011;40903;51.638;7.528;2023-12-20T08:01:13;17.70;;;6.30;;
55009;SDS011;40903;51.638;7.528;2023-12-20T08:03:40;16.83;;;6.40;;
55009;SDS011;40903;51.638;7.528;2023-12-20T08:06:06;13.87;;;6.67;;
55009;SDS011;40903;51.638;7.528;2023-12-20T08:08:32;19.90;;;7.13;;
55009;SDS011;40903;51.638;7.528;2023-12-20T08:10:57;14.03;;;6.23;;
55009;SDS011;40903;51.638;7.528;2023-12-20T08:13:25;13.10;;;6.13;;
55009;SDS011;40903;51.638;7.528;2023-12-20T08:15:51;24.93;;;7.77;;
55009;SDS011;40903;51.638;7.528;2023-12-20T08:18:17;13.53;;;6.07;;
55009;SDS011;40903;51.638;7.528;2023-12-20T08:20:43;15.50;;;6.40;;
55009;SDS011;40903;51.638;7.528;2023-12-20T08:23:09;13.93;;;6.17;;
55009;SDS011;40903;51.638;7.528;2023-12-20T08:25:34;17.37;;;6.30;;
55009;SDS011;40903;51.638;7.528;2023-12-20T08:28:01;11.57;;;5.83;;
55009;SDS011;40903;51.638;7.528;2023-12-20T08:30:28;18.00;;;6.87;;
55009;SDS011;40903;51.638;7.528;2023-12-20T08:32:54;12.47;;;6.30;;
55009;SDS011;40903;51.638;7.528;2023-12-20T08:35:20;15.83;;;5.70;;
55009;SDS011;40903;51.638;7.528;2023-12-20T08:37:45;15.73;;;6.77;;
55009;SDS011;40903;51.638;7.528;2023-12-20T08:40:11;12.13;;;5.47;;
55009;SDS011;40903;51.638;7.528;2023-12-20T08:42:36;15.33;;;6.40;;
55009;SDS011;40903;51.638;7.528;2023-12-20T08:45:02;16.37;;;7.23;;
55009;SDS011;40903;51.638;7.528;2023-12-20T08:47:29;14.53;;;6.10;;
55009;SDS011;40903;51.638;7.528;2023-12-20T08:49:55;20.13;;;6.60;;
55009;SDS011;40903;51.638;7.528;2023-12-20T08:52:24;15.30;;;6.90;;
55009;SDS011;40903;51.638;7.528;2023-12-20T08:54:53;17.73;;;5.80;;
55009;SDS011;40903;51.638;7.528;2023-12-20T08:57:22;18.93;;;6.63;;
55009;SDS011;40903;51.638;7.528;2023-12-20T08:59:51;15.10;;;6.10;;
55009;SDS011;40903;51.638;7.528;2023-12-20T09:02:17;16.37;;;5.93;;
55009;SDS011;40903;51.638;7.528;2023-12-20T09:04:43;15.43;;;5.80;;
55009;SDS011;40903;51.638;7.528;2023-12-20T09:07:21;18.57;;;5.93;;
55009;SDS011;40903;51.638;7.528;2023-12-20T09:09:51;13.03;;;5.13;;
55009;SDS011;40903;51.638;7.528;2023-12-20T09:12:17;9.93;;;5.10;;
55009;SDS011;40903;51.638;7.528;2023-12-20T09:14:44;11.80;;;5.10;;
55009;SDS011;40903;51.638;7.528;2023-12-20T09:17:10;18.70;;;5.40;;
55009;SDS011;40903;51.638;7.528;2023-12-20T09:19:37;18.90;;;5.63;;
55009;SDS011;40903;51.638;7.528;2023-12-20T09:22:02;17.37;;;6.03;;
55009;SDS011;40903;51.638;7.528;2023-12-20T09:24:28;16.27;;;5.97;;
55009;SDS011;40903;51.638;7.528;2023-12-20T09:26:55;12.57;;;5.77;;
55009;SDS011;40903;51.638;7.528;2023-12-20T09:29:20;18.67;;;6.73;;
55009;SDS011;40903;51.638;7.528;2023-12-20T09:31:45;19.37;;;6.57;;
55009;SDS011;40903;51.638;7.528;2023-12-20T09:34:11;12.77;;;5.33;;
55009;SDS011;40903;51.638;7.528;2023-12-20T09:36:37;11.20;;;5.27;;
55009;SDS011;40903;51.638;7.528;2023-12-20T09:39:05;15.77;;;6.13;;
55009;SDS011;40903;51.638;7.528;2023-12-20T09:41:31;16.63;;;5.63;;
55009;SDS011;40903;51.638;7.528;2023-12-20T09:44:02;11.93;;;5.97;;
55009;SDS011;40903;51.638;7.528;2023-12-20T09:46:28;18.37;;;5.47;;
55009;SDS011;40903;51.638;7.528;2023-12-20T09:48:58;25.30;;;6.17;;
55009;SDS011;40903;51.638;7.528;2023-12-20T09:51:25;15.10;;;5.40;;
55009;SDS011;40903;51.638;7.528;2023-12-20T09:53:51;19.17;;;6.40;;
55009;SDS011;40903;51.638;7.528;2023-12-20T09:56:20;14.80;;;4.97;;
55009;SDS011;40903;51.638;7.528;2023-12-20T09:58:46;11.33;;;5.43;;
55009;SDS011;40903;51.638;7.528;2023-12-20T10:01:12;12.30;;;5.20;;
55009;SDS011;40903;51.638;7.528;2023-12-20T10:03:39;10.17;;;5.00;;
55009;SDS011;40903;51.638;7.528;2023-12-20T10:06:06;14.77;;;5.40;;
55009;SDS011;40903;51.638;7.528;2023-12-20T10:08:32;15.77;;;5.17;;
55009;SDS011;40903;51.638;7.528;2023-12-20T10:11:02;16.13;;;5.40;;
55009;SDS011;40903;51.638;7.528;2023-12-20T10:13:29;13.87;;;5.63;;
55009;SDS011;40903;51.638;7.528;2023-12-20T10:15:55;13.77;;;4.83;;
55009;SDS011;40903;51.638;7.528;2023-12-20T10:18:21;16.37;;;5.43;;
55009;SDS011;40903;51.638;7.528;2023-12-20T10:20:46;8.63;;;5.00;;
55009;SDS011;40903;51.638;7.528;2023-12-20T10:23:13;10.00;;;4.57;;
55009;SDS011;40903;51.638;7.528;2023-12-20T10:25:40;14.37;;;5.73;;
55009;SDS011;40903;51.638;7.528;2023-12-20T10:28:10;14.17;;;5.20;;
55009;SDS011;40903;51.638;7.528;2023-12-20T10:30:40;18.20;;;5.80;;
55009;SDS011;40903;51.638;7.528;2023-12-20T10:33:07;12.93;;;5.20;;
55009;SDS011;40903;51.638;7.528;2023-12-20T10:35:33;14.77;;;5.70;;
55009;SDS011;40903;51.638;7.528;2023-12-20T10:38:00;21.93;;;5.90;;
55009;SDS011;40903;51.638;7.528;2023-12-20T10:40:29;11.67;;;5.83;;
55009;SDS011;40903;51.638;7.528;2023-12-20T10:42:54;15.27;;;6.03;;
55009;SDS011;40903;51.638;7.528;2023-12-20T10:45:22;12.90;;;5.93;;
55009;SDS011;40903;51.638;7.528;2023-12-20T10:47:48;12.60;;;5.53;;
55009;SDS011;40903;51.638;7.528;2023-12-20T10:50:16;14.70;;;5.27;;
55009;SDS011;40903;51.638;7.528;2023-12-20T10:52:42;18.27;;;5.40;;
55009;SDS011;40903;51.638;7.528;2023-12-20T10:55:10;14.93;;;5.43;;
55009;SDS011;40903;51.638;7.528;2023-12-20T10:57:36;16.70;;;5.60;;
55009;SDS011;40903;51.638;7.528;2023-12-20T11:00:02;15.83;;;6.90;;
55009;SDS011;40903;51.638;7.528;2023-12-20T11:02:33;13.37;;;5.30;;
55009;SDS011;40903;51.638;7.528;2023-12-20T11:05:06;14.97;;;5.50;;
55009;SDS011;40903;51.638;7.528;2023-12-20T11:08:15;12.90;;;6.10;;
55009;SDS011;40903;51.638;7.528;2023-12-20T11:13:17;12.13;;;6.00;;
55009;SDS011;40903;51.638;7.528;2023-12-20T11:15:47;17.30;;;6.37;;
55009;SDS011;40903;51.638;7.528;2023-12-20T11:18:13;16.07;;;5.73;;
55009;SDS011;40903;51.638;7.528;2023-12-20T11:20:40;10.83;;;4.80;;
55009;SDS011;40903;51.638;7.528;2023-12-20T11:23:10;15.03;;;7.27;;
55009;SDS011;40903;51.638;7.528;2023-12-20T11:25:51;18.30;;;6.43;;
55009;SDS011;40903;51.638;7.528;2023-12-20T11:28:21;15.17;;;5.90;;
55009;SDS011;40903;51.638;7.528;2023-12-20T11:30:50;10.97;;;5.60;;
55009;SDS011;40903;51.638;7.528;2023-12-20T11:33:16;16.00;;;6.30;;
55009;SDS011;40903;51.638;7.528;2023-12-20T11:35:47;9.73;;;5.23;;
55009;SDS011;40903;51.638;7.528;2023-12-20T11:38:13;14.00;;;4.93;;
55009;SDS011;40903;51.638;7.528;2023-12-20T11:40:39;17.27;;;6.03;;
55009;SDS011;40903;51.638;7.528;2023-12-20T11:43:07;21.23;;;5.90;;
55009;SDS011;40903;51.638;7.528;2023-12-20T11:45:33;16.03;;;5.37;;
55009;SDS011;40903;51.638;7.528;2023-12-20T11:48:00;15.53;;;5.47;;
55009;SDS011;40903;51.638;7.528;2023-12-20T11:50:27;15.47;;;5.10;;
55009;SDS011;40903;51.638;7.528;2023-12-20T11:52:54;14.50;;;5.17;;
55009;SDS011;40903;51.638;7.528;2023-12-20T11:55:23;9.80;;;4.17;;
55009;SDS011;40903;51.638;7.528;2023-12-20T11:57:57;10.83;;;4.63;;
55009;SDS011;40903;51.638;7.528;2023-12-20T12:00:24;6.70;;;3.83;;
55009;SDS011;40903;51.638;7.528;2023-12-20T12:02:56;12.20;;;3.97;;
55009;SDS011;40903;51.638;7.528;2023-12-20T12:05:23;4.73;;;3.47;;
55009;SDS011;40903;51.638;7.528;2023-12-20T12:07:49;8.00;;;3.60;;
55009;SDS011;40903;51.638;7.528;2023-12-20T12:10:14;7.43;;;3.80;;
55009;SDS011;40903;51.638;7.528;2023-12-20T12:12:40;7.47;;;4.00;;
55009;SDS011;40903;51.638;7.528;2023-12-20T12:15:05;21.20;;;6.03;;
55009;SDS011;40903;51.638;7.528;2023-12-20T12:17:31;10.77;;;5.07;;
55009;SDS011;40903;51.638;7.528;2023-12-20T12:20:04;14.33;;;4.93;;
55009;SDS011;40903;51.638;7.528;2023-12-20T12:22:31;11.67;;;5.10;;
55009;SDS011;40903;51.638;7.528;2023-12-20T12:24:58;10.97;;;5.40;;
55009;SDS011;40903;51.638;7.528;2023-12-20T12:27:34;14.13;;;6.47;;
55009;SDS011;40903;51.638;7.528;2023-12-20T12:30:00;19.30;;;6.20;;
55009;SDS011;40903;51.638;7.528;2023-12-20T12:32:28;11.67;;;5.83;;
55009;SDS011;40903;51.638;7.528;2023-12-20T12:34:54;13.20;;;5.80;;
55009;SDS011;40903;51.638;7.528;2023-12-20T12:37:20;14.97;;;6.67;;
55009;SDS011;40903;51.638;7.528;2023-12-20T12:39:48;13.63;;;6.30;;
55009;SDS011;40903;51.638;7.528;2023-12-20T12:42:14;12.67;;;6.77;;
55009;SDS011;40903;51.638;7.528;2023-12-20T12:44:39;13.93;;;6.57;;
55009;SDS011;40903;51.638;7.528;2023-12-20T12:47:05;10.33;;;6.30;;
55009;SDS011;40903;51.638;7.528;2023-12-20T12:49:31;15.73;;;6.37;;
55009;SDS011;40903;51.638;7.528;2023-12-20T12:51:57;14.03;;;5.70;;
55009;SDS011;40903;51.638;7.528;2023-12-20T12:54:23;15.23;;;6.77;;
55009;SDS011;40903;51.638;7.528;2023-12-20T12:56:49;16.47;;;6.73;;
55009;SDS011;40903;51.638;7.528;2023-12-20T12:59:15;13.80;;;6.10;;
55009;SDS011;40903;51.638;7.528;2023-12-20T13:01:41;10.00;;;5.70;;
55009;SDS011;40903;51.638;7.528;2023-12-20T13:04:07;11.60;;;6.60;;
55009;SDS011;40903;51.638;7.528;2023-12-20T13:06:36;18.47;;;8.67;;
55009;SDS011;40903;51.638;7.528;2023-12-20T13:09:02;13.80;;;6.30;;
55009;SDS011;40903;51.638;7.528;2023-12-20T13:11:29;17.73;;;6.87;;
55009;SDS011;40903;51.638;7.528;2023-12-20T13:13:56;13.87;;;6.90;;
55009;SDS011;40903;51.638;7.528;2023-12-20T13:16:22;13.20;;;6.00;;
55009;SDS011;40903;51.638;7.528;2023-12-20T13:18:49;15.33;;;6.50;;
55009;SDS011;40903;51.638;7.528;2023-12-20T13:21:15;16.50;;;6.07;;
55009;SDS011;40903;51.638;7.528;2023-12-20T13:23:41;15.37;;;6.70;;
55009;SDS011;40903;51.638;7.528;2023-12-20T13:26:07;19.67;;;6.77;;
55009;SDS011;40903;51.638;7.528;2023-12-20T13:28:33;12.90;;;6.37;;
55009;SDS011;40903;51.638;7.528;2023-12-20T13:30:58;14.77;;;6.13;;
55009;SDS011;40903;51.638;7.528;2023-12-20T13:33:24;13.50;;;6.77;;
55009;SDS011;40903;51.638;7.528;2023-12-20T13:35:50;13.63;;;5.43;;
55009;SDS011;40903;51.638;7.528;2023-12-20T13:38:16;14.23;;;5.47;;
55009;SDS011;40903;51.638;7.528;2023-12-20T13:40:41;10.57;;;6.00;;
55009;SDS011;40903;51.638;7.528;2023-12-20T13:43:07;23.23;;;6.63;;
55009;SDS011;40903;51.638;7.528;2023-12-20T13:45:32;17.83;;;7.47;;
55009;SDS011;40903;51.638;7.528;2023-12-20T13:47:58;10.03;;;5.73;;
55009;SDS011;40903;51.638;7.528;2023-12-20T13:50:24;17.67;;;6.63;;
55009;SDS011;40903;51.638;7.528;2023-12-20T13:52:49;12.07;;;6.30;;
55009;SDS011;40903;51.638;7.528;2023-12-20T13:55:15;16.87;;;6.70;;
55009;SDS011;40903;51.638;7.528;2023-12-20T13:57:40;12.17;;;6.40;;
55009;SDS011;40903;51.638;7.528;2023-12-20T14:00:06;11.10;;;6.80;;
55009;SDS011;40903;51.638;7.528;2023-12-20T14:02:39;13.33;;;7.10;;
55009;SDS011;40903;51.638;7.528;2023-12-20T14:05:05;12.67;;;6.57;;
55009;SDS011;40903;51.638;7.528;2023-12-20T14:07:31;14.97;;;6.93;;
55009;SDS011;40903;51.638;7.528;2023-12-20T14:09:57;13.37;;;6.93;;
55009;SDS011;40903;51.638;7.528;2023-12-20T14:12:24;14.20;;;6.77;;
55009;SDS011;40903;51.638;7.528;2023-12-20T14:14:50;14.10;;;6.20;;
55009;SDS011;40903;51.638;7.528;2023-12-20T14:17:15;13.87;;;6.37;;
55009;SDS011;40903;51.638;7.528;2023-12-20T14:19:41;14.00;;;6.93;;
55009;SDS011;40903;51.638;7.528;2023-12-20T14:22:07;17.83;;;6.90;;
55009;SDS011;40903;51.638;7.528;2023-12-20T14:24:32;18.00;;;7.13;;
55009;SDS011;40903;51.638;7.528;2023-12-20T14:26:59;13.73;;;7.43;;
55009;SDS011;40903;51.638;7.528;2023-12-20T14:29:25;15.00;;;6.37;;
55009;SDS011;40903;51.638;7.528;2023-12-20T14:31:50;16.17;;;7.07;;
55009;SDS011;40903;51.638;7.528;2023-12-20T14:34:16;16.43;;;7.33;;